Weather at Taiwan Taoyuan International Airport

Public forecast

Using degrees Celsius for public forecast. Weather courtesy of forecast.io.

Current aviation weather report (METAR) for Taiwan Taoyuan International Airport

Retrieved 2021/12/04 01:00 UTC (25 minutes ago):

RCTP 040100Z 06016KT 9999 FEW015 19/10 Q1024 NOSIG RMK A3026

Aviation forecast (TAF) for Taiwan Taoyuan International Airport

Retrieved 2021-12-04 00:00 UTC (1 hour ago):

TAF RCTP 032300Z 0400/0506 05013KT 9999 FEW015 BKN032 TEMPO 0403/0407 04018KT TEMPO 0407/0413 FEW012 BKN020 TEMPO 0415/0421 08013KT TEMPO 0421/0501 06008KT FEW012 BKN020 TEMPO 0501/0506 03018KT FEW012 BKN020